Time;durP1;ratioP1;P1;durP2;ratioP2;P2;SDS_P1;SDS_P2;PMS_P1;PMS_P2;Temp;Humidity;BMP_temperature;BMP_pressure;BME280_temperature;BME280_humidity;BME280_pressure;Samples;Min_cycle;Max_cycle;Signal;HPM_P1;HPM_P2
2023/03/18 00:01:52;;;;;;;23.10;11.60;;;;;;;3.75;100.00;101220.58;105412;1296;25459;-74
2023/03/18 00:04:23;;;;;;;22.10;11.20;;;;;;;3.75;100.00;101227.73;105543;1296;25532;-72
2023/03/18 00:06:51;;;;;;;21.70;11.10;;;;;;;3.74;100.00;101239.18;105537;1296;22597;-73
2023/03/18 00:09:27;;;;;;;23.80;12.00;;;;;;;3.71;100.00;101235.80;105548;1296;26646;-73
2023/03/18 00:11:56;;;;;;;21.10;10.50;;;;;;;3.68;100.00;101221.87;105555;1296;26594;-72
2023/03/18 00:14:25;;;;;;;19.10;9.70;;;;;;;3.68;100.00;101214.40;105584;1296;24253;-73
2023/03/18 00:16:56;;;;;;;18.70;10.10;;;;;;;3.68;100.00;101214.03;105642;1296;25424;-73
2023/03/18 00:19:25;;;;;;;21.90;10.60;;;;;;;3.67;100.00;101227.11;105586;1296;25383;-72
2023/03/18 00:21:54;;;;;;;25.90;11.00;;;;;;;3.67;100.00;101232.48;105565;1296;25275;-72
2023/03/18 00:24:23;;;;;;;20.60;10.30;;;;;;;3.67;100.00;101231.06;105415;1296;24426;-74
2023/03/18 00:26:52;;;;;;;22.50;11.40;;;;;;;3.65;100.00;101232.28;105545;1296;26697;-74
2023/03/18 00:29:22;;;;;;;22.30;11.20;;;;;;;3.62;100.00;101226.39;105565;1296;26550;-73
2023/03/18 00:31:50;;;;;;;23.00;10.60;;;;;;;3.60;100.00;101227.73;105545;1296;22574;-73
2023/03/18 00:34:20;;;;;;;23.20;11.20;;;;;;;3.59;100.00;101227.84;105534;1296;25367;-74
2023/03/18 00:36:55;;;;;;;21.50;9.90;;;;;;;3.58;100.00;101227.52;105540;1296;25345;-71
2023/03/18 00:39:31;;;;;;;22.00;10.90;;;;;;;3.59;100.00;101227.47;105561;1296;26678;-72
2023/03/18 00:42:09;;;;;;;19.60;9.80;;;;;;;3.57;100.00;101234.49;105541;1296;25614;-72
2023/03/18 00:44:39;;;;;;;24.30;11.10;;;;;;;3.56;100.00;101235.52;105478;1296;25430;-73
2023/03/18 00:47:12;;;;;;;22.50;11.10;;;;;;;3.55;100.00;101237.52;105540;1296;25452;-72
2023/03/18 00:49:41;;;;;;;22.90;11.00;;;;;;;3.56;100.00;101243.18;105541;1296;25412;-72
2023/03/18 00:52:10;;;;;;;23.00;11.50;;;;;;;3.56;100.00;101241.75;105539;1296;25446;-72
2023/03/18 00:54:39;;;;;;;23.40;12.00;;;;;;;3.55;100.00;101243.56;105537;1296;25688;-72
2023/03/18 00:57:09;;;;;;;20.00;10.60;;;;;;;3.55;100.00;101250.33;105397;1296;24360;-72
2023/03/18 00:59:39;;;;;;;22.30;11.30;;;;;;;3.57;100.00;101248.27;105401;1296;23117;-74
2023/03/18 01:02:07;;;;;;;21.70;11.50;;;;;;;3.59;100.00;101248.67;105473;1297;25403;-72
2023/03/18 01:04:37;;;;;;;18.90;10.40;;;;;;;3.59;100.00;101250.99;105535;1296;25430;-73
2023/03/18 01:07:06;;;;;;;21.20;11.30;;;;;;;3.60;100.00;101254.16;105613;1296;25465;-73
2023/03/18 01:09:38;;;;;;;21.80;11.00;;;;;;;3.61;100.00;101259.25;105562;1296;22546;-74
2023/03/18 01:12:07;;;;;;;19.50;9.10;;;;;;;3.61;100.00;101261.92;105539;1296;25576;-72
2023/03/18 01:14:37;;;;;;;22.90;11.90;;;;;;;3.62;100.00;101263.83;105592;1296;24393;-75
2023/03/18 01:17:06;;;;;;;23.80;11.20;;;;;;;3.61;100.00;101263.87;105531;1296;22553;-73
2023/03/18 01:19:37;;;;;;;20.30;9.70;;;;;;;3.58;100.00;101261.77;105568;1296;26541;-74
2023/03/18 01:22:07;;;;;;;22.80;11.60;;;;;;;3.56;100.00;101260.09;105443;1296;25304;-73
2023/03/18 01:24:41;;;;;;;22.60;11.20;;;;;;;3.57;100.00;101264.66;105419;1296;22552;-72
2023/03/18 01:27:10;;;;;;;21.70;11.10;;;;;;;3.55;100.00;101269.61;105442;1296;25391;-71
2023/03/18 01:29:39;;;;;;;22.80;11.40;;;;;;;3.53;100.00;101269.06;105524;1296;22552;-73
2023/03/18 01:32:13;;;;;;;21.60;10.70;;;;;;;3.50;100.00;101265.64;105590;1296;25472;-72
2023/03/18 01:34:41;;;;;;;21.30;11.30;;;;;;;3.47;100.00;101272.42;105586;1296;22558;-74
2023/03/18 01:37:10;;;;;;;23.20;11.00;;;;;;;3.46;100.00;101270.52;105426;1296;26577;-73
2023/03/18 01:39:40;;;;;;;22.30;10.50;;;;;;;3.47;100.00;101275.13;105573;1296;25565;-73
2023/03/18 01:42:16;;;;;;;21.50;11.40;;;;;;;3.49;100.00;101274.98;105571;1296;24304;-73
2023/03/18 01:44:45;;;;;;;21.20;10.90;;;;;;;3.49;100.00;101276.23;104950;1296;1003769;-75
2023/03/18 01:47:16;;;;;;;21.80;11.40;;;;;;;3.47;100.00;101277.42;107654;1296;22584;-72
2023/03/18 01:49:55;;;;;;;20.10;10.70;;;;;;;3.46;100.00;101272.33;107376;1296;25988;-73
2023/03/18 01:52:26;;;;;;;22.10;10.50;;;;;;;3.45;100.00;101275.08;105181;1296;26538;-78
2023/03/18 01:54:58;;;;;;;18.90;9.60;;;;;;;3.41;100.00;101273.83;105124;1296;22553;-74
2023/03/18 01:57:29;;;;;;;19.30;9.80;;;;;;;3.39;100.00;101276.48;105428;1296;26545;-74
2023/03/18 01:59:59;;;;;;;18.40;8.90;;;;;;;3.36;100.00;101276.30;105484;1296;26713;-76
2023/03/18 02:02:33;;;;;;;19.10;9.40;;;;;;;3.33;100.00;101272.38;105624;1296;25320;-76
2023/03/18 02:05:05;;;;;;;19.40;9.60;;;;;;;3.32;100.00;101278.00;105593;1296;25382;-74
2023/03/18 02:07:35;;;;;;;18.40;8.20;;;;;;;3.30;100.00;101281.65;105129;1296;22554;-72
2023/03/18 02:10:10;;;;;;;18.80;10.20;;;;;;;3.31;100.00;101282.72;105452;1296;23343;-72
2023/03/18 02:12:42;;;;;;;19.30;9.60;;;;;;;3.30;100.00;101276.67;105574;1296;24539;-73
2023/03/18 02:15:15;;;;;;;;;;;;;;;3.29;100.00;101283.16;105479;1297;22538;-73
2023/03/18 02:17:48;;;;;;;17.90;9.00;;;;;;;3.29;100.00;101285.63;105487;1296;25445;-73
2023/03/18 02:20:58;;;;;;;18.80;9.20;;;;;;;3.29;100.00;101284.23;105556;1296;22595;-72
2023/03/18 02:23:46;;;;;;;18.00;9.30;;;;;;;3.28;100.00;101274.12;105210;1296;24381;-73
2023/03/18 02:26:33;;;;;;;19.40;9.30;;;;;;;3.28;100.00;101278.22;105632;1296;25524;-73
2023/03/18 02:29:12;;;;;;;19.20;10.30;;;;;;;3.30;100.00;101279.21;105549;1296;25460;-72
2023/03/18 02:31:46;;;;;;;21.20;10.70;;;;;;;3.31;100.00;101289.83;105151;1298;25432;-72
2023/03/18 02:34:15;;;;;;;19.40;9.70;;;;;;;3.28;100.00;101296.57;105253;1297;26695;-72
2023/03/18 02:36:46;;;;;;;18.70;9.60;;;;;;;3.29;100.00;101296.19;104998;1297;26547;-73
2023/03/18 02:39:15;;;;;;;19.00;9.00;;;;;;;3.27;100.00;101297.00;105267;1297;24266;-74
2023/03/18 02:41:44;;;;;;;18.70;9.10;;;;;;;3.24;100.00;101302.16;105177;1297;22548;-73
2023/03/18 02:44:13;;;;;;;18.70;8.60;;;;;;;3.22;100.00;101301.42;105595;1297;25533;-74
2023/03/18 02:47:03;;;;;;;20.30;8.90;;;;;;;3.22;100.00;101296.58;105488;1297;22554;-73
2023/03/18 02:49:32;;;;;;;19.70;8.70;;;;;;;3.23;100.00;101297.41;105534;1297;25404;-72
2023/03/18 02:52:01;;;;;;;16.50;7.70;;;;;;;3.22;100.00;101301.95;105097;1297;22549;-74
2023/03/18 02:54:30;;;;;;;16.20;8.30;;;;;;;3.19;100.00;101303.88;105478;1297;23711;-74
2023/03/18 02:57:00;;;;;;;13.70;7.40;;;;;;;3.18;100.00;101303.79;105516;1297;25449;-73
2023/03/18 02:59:31;;;;;;;15.40;8.50;;;;;;;3.17;100.00;101302.08;105527;1298;24230;-72
2023/03/18 03:02:00;;;;;;;15.00;7.30;;;;;;;3.16;100.00;101302.86;105111;1298;25331;-73
2023/03/18 03:04:29;;;;;;;17.60;8.50;;;;;;;3.15;100.00;101307.35;105118;1297;25329;-72
2023/03/18 03:07:00;;;;;;;17.80;8.60;;;;;;;3.13;100.00;101311.23;105515;1297;22550;-73
2023/03/18 03:09:41;;;;;;;14.80;7.40;;;;;;;3.09;100.00;101304.67;105508;1297;25526;-71
2023/03/18 03:12:11;;;;;;;16.40;7.90;;;;;;;3.04;100.00;101310.46;105107;1298;25442;-72
2023/03/18 03:14:44;;;;;;;;;;;;;;;3.01;100.00;101308.36;105537;1298;25422;-73
2023/03/18 03:17:14;;;;;;;15.30;6.90;;;;;;;3.00;100.00;101307.37;105482;1298;26694;-74
2023/03/18 03:19:47;;;;;;;15.40;7.90;;;;;;;2.99;100.00;101306.89;105556;1296;25385;-72
2023/03/18 03:22:18;;;;;;;18.60;7.80;;;;;;;2.98;100.00;101304.77;105591;1297;25332;-72
2023/03/18 03:24:47;;;;;;;16.80;7.60;;;;;;;2.96;100.00;101305.80;105417;1296;22554;-73
2023/03/18 03:27:16;;;;;;;16.60;7.50;;;;;;;2.95;100.00;101306.20;105446;1274;22550;-74
2023/03/18 03:29:45;;;;;;;17.90;8.00;;;;;;;2.96;100.00;101305.97;105582;1297;25454;-73
2023/03/18 03:32:14;;;;;;;16.70;7.30;;;;;;;2.97;100.00;101304.88;105549;1296;25331;-72
2023/03/18 03:34:43;;;;;;;22.70;8.90;;;;;;;2.95;100.00;101300.86;105637;1296;25391;-72
2023/03/18 03:37:12;;;;;;;18.80;7.70;;;;;;;2.94;100.00;101302.73;105545;1296;25277;-73
2023/03/18 03:39:44;;;;;;;16.10;7.40;;;;;;;2.94;100.00;101300.20;105582;1297;25454;-72
2023/03/18 03:42:13;;;;;;;17.10;7.90;;;;;;;2.95;100.00;101301.56;105581;1297;26532;-73
2023/03/18 03:44:48;;;;;;;17.80;7.80;;;;;;;2.96;100.00;101300.45;105587;1297;25389;-72
2023/03/18 03:47:17;;;;;;;16.50;7.60;;;;;;;2.96;100.00;101302.59;105669;1297;25465;-73
2023/03/18 03:49:46;;;;;;;18.30;7.70;;;;;;;2.98;100.00;101304.63;105582;1296;22553;-73
2023/03/18 03:52:18;;;;;;;17.90;8.10;;;;;;;2.98;100.00;101305.14;105568;1297;22547;-73
2023/03/18 03:54:50;;;;;;;19.20;7.30;;;;;;;2.98;100.00;101300.33;105573;1297;25545;-73
2023/03/18 03:57:22;;;;;;;19.80;7.70;;;;;;;3.00;100.00;101304.14;105552;1297;26537;-72
2023/03/18 03:59:52;;;;;;;14.80;7.30;;;;;;;3.01;100.00;101304.23;105589;1297;23165;-73
2023/03/18 04:02:42;;;;;;;17.90;7.40;;;;;;;3.01;100.00;101302.80;105610;1297;25346;-74
2023/03/18 04:05:13;;;;;;;19.60;8.20;;;;;;;3.04;100.00;101312.97;105565;1296;25351;-72
2023/03/18 04:07:42;;;;;;;16.70;7.80;;;;;;;3.06;100.00;101312.52;105573;1297;23868;-73
2023/03/18 04:10:12;;;;;;;19.80;8.10;;;;;;;3.04;100.00;101310.49;105629;1297;25429;-74
2023/03/18 04:12:41;;;;;;;17.80;8.20;;;;;;;3.02;100.00;101308.10;105621;1296;24308;-73
2023/03/18 04:15:09;;;;;;;16.60;8.40;;;;;;;3.02;100.00;101304.55;105571;1297;23883;-73
2023/03/18 04:17:39;;;;;;;15.60;7.40;;;;;;;3.03;100.00;101307.85;105614;1297;25483;-72
2023/03/18 04:20:09;;;;;;;21.00;8.90;;;;;;;3.04;100.00;101303.36;109012;1296;22550;-70
2023/03/18 04:22:46;;;;;;;18.70;8.60;;;;;;;3.05;100.00;101303.67;106100;1296;22585;-72
2023/03/18 04:25:16;;;;;;;18.40;8.70;;;;;;;3.05;100.00;101308.13;105140;1297;25383;-72
2023/03/18 04:27:46;;;;;;;16.30;7.70;;;;;;;3.05;100.00;101310.97;105274;1296;22552;-72
2023/03/18 04:30:16;;;;;;;21.10;9.60;;;;;;;3.07;100.00;101318.89;105119;1296;26645;-73
2023/03/18 04:32:56;;;;;;;19.70;8.50;;;;;;;3.07;100.00;101314.24;105587;1297;25295;-73
2023/03/18 04:35:31;;;;;;;19.10;9.10;;;;;;;3.04;100.00;101315.80;105463;1296;25400;-72
2023/03/18 04:38:00;;;;;;;20.20;8.90;;;;;;;3.02;100.00;101320.39;105605;1296;22801;-73
2023/03/18 04:40:29;;;;;;;23.00;9.30;;;;;;;3.02;100.00;101323.95;105552;1296;22553;-74
2023/03/18 04:42:59;;;;;;;19.60;9.10;;;;;;;3.02;100.00;101325.55;105584;1296;22553;-73
2023/03/18 04:45:28;;;;;;;19.20;8.20;;;;;;;3.02;100.00;101324.31;105589;1296;26681;-72
2023/03/18 04:48:00;;;;;;;22.30;9.20;;;;;;;3.05;100.00;101330.77;105599;1296;25289;-73
2023/03/18 04:50:32;;;;;;;22.50;8.90;;;;;;;3.07;100.00;101330.63;105373;1296;25462;-72
2023/03/18 04:53:02;;;;;;;20.30;8.20;;;;;;;3.09;100.00;101333.58;105586;1296;22549;-73
2023/03/18 04:55:32;;;;;;;19.80;8.40;;;;;;;3.12;100.00;101331.09;105464;1296;26664;-72
2023/03/18 04:58:03;;;;;;;17.10;8.30;;;;;;;3.13;100.00;101331.02;105600;1296;24291;-72
2023/03/18 05:00:36;;;;;;;19.30;8.60;;;;;;;3.12;100.00;101333.72;105604;1296;25386;-73
2023/03/18 05:03:16;;;;;;;17.90;9.20;;;;;;;3.14;100.00;101335.21;105499;1296;22548;-73
2023/03/18 05:05:48;;;;;;;22.00;9.10;;;;;;;3.15;100.00;101341.03;104647;1296;1003250;-73
2023/03/18 05:08:22;;;;;;;19.20;8.70;;;;;;;3.13;100.00;101343.11;105577;1296;26546;-73
2023/03/18 05:10:51;;;;;;;20.00;8.60;;;;;;;3.11;100.00;101344.11;105588;1296;24318;-74
2023/03/18 05:13:21;;;;;;;19.20;8.90;;;;;;;3.09;100.00;101346.59;105599;1296;25324;-73
2023/03/18 05:15:50;;;;;;;19.70;9.50;;;;;;;3.08;100.00;101346.61;105393;1296;22575;-72
2023/03/18 05:18:19;;;;;;;18.50;8.50;;;;;;;3.09;100.00;101345.88;105570;1296;22562;-73
2023/03/18 05:20:49;;;;;;;20.70;8.40;;;;;;;3.08;100.00;101348.23;105565;1296;22552;-73
2023/03/18 05:23:18;;;;;;;16.60;7.60;;;;;;;3.08;100.00;101352.85;105593;1296;22609;-74
2023/03/18 05:25:51;;;;;;;20.20;8.80;;;;;;;3.09;100.00;101355.08;105606;1296;25276;-72
2023/03/18 05:28:21;;;;;;;20.20;8.60;;;;;;;3.13;100.00;101359.17;105602;1296;22554;-73
2023/03/18 05:31:06;;;;;;;18.20;8.20;;;;;;;3.12;100.00;101349.02;105602;1296;25398;-74
2023/03/18 05:33:41;;;;;;;20.00;8.00;;;;;;;3.10;100.00;101350.05;105603;1296;25388;-73
2023/03/18 05:36:12;;;;;;;15.80;7.60;;;;;;;3.11;100.00;101353.21;105615;1296;25275;-73
2023/03/18 05:38:55;;;;;;;18.80;8.10;;;;;;;3.14;100.00;101353.71;105421;1296;25409;-73
2023/03/18 05:41:25;;;;;;;46.70;18.20;;;;;;;3.18;100.00;101365.79;105402;1296;25358;-73
2023/03/18 05:43:53;;;;;;;18.80;8.80;;;;;;;3.23;100.00;101368.87;105605;1296;23218;-72
2023/03/18 05:46:22;;;;;;;17.70;8.00;;;;;;;3.26;100.00;101368.87;105618;1296;25302;-72
2023/03/18 05:49:07;;;;;;;17.10;7.00;;;;;;;3.27;100.00;101367.04;105662;1296;26666;-74
2023/03/18 05:52:00;;;;;;;24.80;7.40;;;;;;;3.23;100.00;101372.23;105589;1296;25531;-73
2023/03/18 05:54:37;;;;;;;24.90;7.00;;;;;;;3.20;100.00;101379.77;105653;1296;25413;-72
2023/03/18 05:57:06;;;;;;;22.90;7.00;;;;;;;3.16;100.00;101384.96;105592;1296;22532;-74
2023/03/18 05:59:35;;;;;;;22.90;5.80;;;;;;;3.16;100.00;101389.64;104846;1296;1003581;-74
2023/03/18 06:02:08;;;;;;;19.80;5.10;;;;;;;3.13;100.00;101392.12;104948;1296;1003798;-73
2023/03/18 06:04:39;;;;;;;14.80;5.50;;;;;;;3.11;100.00;101395.42;105511;1296;25293;-72
2023/03/18 06:07:07;;;;;;;22.00;5.10;;;;;;;3.10;100.00;101399.06;105237;1296;238896;-73
2023/03/18 06:09:36;;;;;;;27.10;6.30;;;;;;;3.10;100.00;101396.39;105368;1296;22619;-74
2023/03/18 06:12:06;;;;;;;21.40;5.90;;;;;;;3.11;100.00;101398.27;105368;1296;26547;-73
2023/03/18 06:14:36;;;;;;;20.30;6.10;;;;;;;3.13;100.00;101399.25;105590;1296;22550;-75
2023/03/18 06:17:06;;;;;;;37.20;6.10;;;;;;;3.16;100.00;101402.08;105419;1296;25555;-74
2023/03/18 06:19:37;;;;;;;26.90;6.00;;;;;;;3.17;100.00;101403.80;105600;1296;25388;-73
2023/03/18 06:22:06;;;;;;;23.00;6.20;;;;;;;3.18;100.00;101409.98;105562;1296;22587;-74
2023/03/18 06:24:36;;;;;;;24.30;5.60;;;;;;;3.18;100.00;101412.29;105376;1296;25375;-74
2023/03/18 06:27:06;;;;;;;30.70;6.80;;;;;;;3.19;100.00;101415.27;105462;1296;25518;-74
2023/03/18 06:29:40;;;;;;;25.80;6.20;;;;;;;3.19;100.00;101416.48;105416;1296;24291;-74
2023/03/18 06:32:12;;;;;;;21.60;5.70;;;;;;;3.20;100.00;101416.61;105491;1296;25324;-73
2023/03/18 06:34:48;;;;;;;16.80;5.80;;;;;;;3.22;100.00;101421.88;105427;1296;25320;-74
2023/03/18 06:37:17;;;;;;;25.00;6.20;;;;;;;3.23;100.00;101420.93;105655;1296;25369;-73
2023/03/18 06:39:48;;;;;;;18.80;5.70;;;;;;;3.24;100.00;101421.59;105514;1297;22553;-73
2023/03/18 06:42:18;;;;;;;18.70;6.10;;;;;;;3.28;100.00;101418.66;105622;1297;25334;-72
2023/03/18 06:45:02;;;;;;;19.40;6.00;;;;;;;3.30;100.00;101418.54;105430;1297;24410;-72
2023/03/18 06:47:43;;;;;;;21.30;5.00;;;;;;;3.34;100.00;101414.75;105456;1296;22548;-72
2023/03/18 06:50:12;;;;;;;25.50;6.00;;;;;;;3.38;100.00;101422.00;105446;1297;25273;-74
2023/03/18 06:52:42;;;;;;;24.80;6.50;;;;;;;3.44;100.00;101423.09;107278;1296;22503;-74
2023/03/18 06:55:15;;;;;;;34.70;8.40;;;;;;;3.47;100.00;101419.00;107510;1296;25438;-71
2023/03/18 06:57:45;;;;;;;30.40;6.00;;;;;;;3.46;100.00;101422.95;106171;1296;22553;-76
2023/03/18 07:00:17;;;;;;;19.90;5.50;;;;;;;3.46;100.00;101425.27;105612;1296;25489;-72
2023/03/18 07:02:46;;;;;;;28.20;5.80;;;;;;;3.48;100.00;101427.51;105471;1292;25468;-73
2023/03/18 07:05:16;;;;;;;18.60;5.10;;;;;;;3.48;100.00;101428.54;105585;1290;22538;-73
2023/03/18 07:07:47;;;;;;;28.10;6.30;;;;;;;3.50;100.00;101428.06;105581;1288;25456;-73
2023/03/18 07:10:33;;;;;;;25.00;5.00;;;;;;;3.53;100.00;101428.42;105611;1293;22562;-73
2023/03/18 07:13:12;;;;;;;27.70;5.50;;;;;;;3.59;100.00;101425.40;105362;1289;22637;-73
2023/03/18 07:15:42;;;;;;;39.80;9.80;;;;;;;3.65;100.00;101429.52;105427;1295;24349;-73
2023/03/18 07:18:13;;;;;;;37.20;6.10;;;;;;;3.66;100.00;101429.08;105299;1296;25382;-75
2023/03/18 07:20:42;;;;;;;31.60;5.70;;;;;;;3.65;100.00;101428.64;105248;1296;24246;-74
2023/03/18 07:23:11;;;;;;;23.60;5.00;;;;;;;3.65;100.00;101433.23;105341;1296;25407;-74
2023/03/18 07:25:41;;;;;;;29.80;5.20;;;;;;;3.63;100.00;101429.98;105416;1294;25419;-73
2023/03/18 07:28:09;;;;;;;29.60;6.00;;;;;;;3.60;100.00;101433.33;105659;1296;22546;-72
2023/03/18 07:30:39;;;;;;;33.20;5.90;;;;;;;3.59;100.00;101432.16;104997;1296;1003786;-75
2023/03/18 07:33:08;;;;;;;29.60;5.70;;;;;;;3.60;100.00;101434.27;105592;1290;25446;-76
2023/03/18 07:35:40;;;;;;;20.70;4.90;;;;;;;3.60;100.00;101437.96;105447;1290;26659;-79
2023/03/18 07:38:09;;;;;;;28.80;5.10;;;;;;;3.60;100.00;101440.86;105774;1296;24237;-76
2023/03/18 07:40:37;;;;;;;22.30;4.60;;;;;;;3.61;100.00;101440.79;105616;1293;24223;-72
2023/03/18 07:43:06;;;;;;;16.50;4.20;;;;;;;3.66;100.00;101447.99;105549;1290;25435;-71
2023/03/18 07:45:36;;;;;;;24.50;5.50;;;;;;;3.69;100.00;101451.19;105602;1289;25372;-72
2023/03/18 07:48:05;;;;;;;38.70;5.60;;;;;;;3.71;100.00;101447.67;105563;1293;22608;-74
2023/03/18 07:50:33;;;;;;;22.10;6.10;;;;;;;3.73;100.00;101456.14;105446;1292;22799;-74
2023/03/18 07:53:03;;;;;;;28.60;7.40;;;;;;;3.73;100.00;101456.80;105343;1296;25490;-76
2023/03/18 07:56:06;;;;;;;26.20;7.10;;;;;;;3.76;100.00;101460.74;106001;1296;22770;-70
2023/03/18 07:58:43;;;;;;;18.90;6.00;;;;;;;3.84;100.00;101453.34;105089;1298;24263;-77
2023/03/18 08:01:14;;;;;;;30.50;6.80;;;;;;;3.93;100.00;101466.88;105225;1301;25689;-76
2023/03/18 08:03:45;;;;;;;35.80;6.50;;;;;;;4.03;100.00;101475.39;104903;1301;24063;-79
2023/03/18 08:06:14;;;;;;;25.40;4.90;;;;;;;4.10;100.00;101477.60;104931;1299;22607;-74
2023/03/18 08:08:43;;;;;;;29.80;5.20;;;;;;;4.15;100.00;101480.14;105081;1299;22548;-77
2023/03/18 08:11:13;;;;;;;22.20;5.50;;;;;;;4.16;100.00;101479.93;105149;1299;24483;-72
2023/03/18 08:13:42;;;;;;;32.40;4.80;;;;;;;4.11;100.00;101488.10;105211;1299;25416;-73
2023/03/18 08:16:11;;;;;;;26.90;5.10;;;;;;;4.03;100.00;101488.56;105346;1299;25310;-77
2023/03/18 08:18:45;;;;;;;21.40;4.40;;;;;;;3.97;100.00;101493.72;105304;1299;26592;-71
2023/03/18 08:21:14;;;;;;;26.10;4.90;;;;;;;3.96;100.00;101497.73;105248;1299;23297;-72
2023/03/18 08:23:43;;;;;;;23.50;5.30;;;;;;;3.94;100.00;101501.79;105446;1299;26547;-73
2023/03/18 08:26:12;;;;;;;27.30;5.50;;;;;;;3.96;100.00;101504.15;105298;1299;25389;-70
2023/03/18 08:28:40;;;;;;;18.50;3.80;;;;;;;3.99;100.00;101509.52;105441;1300;25335;-71
2023/03/18 08:31:09;;;;;;;22.80;4.80;;;;;;;4.04;100.00;101508.70;105622;1296;22743;-71
2023/03/18 08:33:38;;;;;;;25.30;5.70;;;;;;;4.07;100.00;101509.03;105682;1289;23684;-70
2023/03/18 08:36:07;;;;;;;27.10;4.90;;;;;;;4.09;100.00;101511.39;105654;1273;22737;-74
2023/03/18 08:38:36;;;;;;;17.80;3.30;;;;;;;4.15;100.00;101514.75;105552;1296;25448;-73
2023/03/18 08:41:05;;;;;;;24.50;4.40;;;;;;;4.22;100.00;101513.33;105557;1296;25526;-74
2023/03/18 08:43:34;;;;;;;28.30;5.20;;;;;;;4.25;100.00;101519.57;105613;1296;25422;-76
2023/03/18 08:46:06;;;;;;;22.30;5.10;;;;;;;4.28;100.00;101520.59;105433;1296;25786;-76
2023/03/18 08:48:35;;;;;;;23.30;4.70;;;;;;;4.26;100.00;101521.79;105637;1296;25513;-73
2023/03/18 08:51:07;;;;;;;30.50;4.80;;;;;;;4.26;100.00;101525.19;105625;1296;25367;-74
2023/03/18 08:53:36;;;;;;;16.50;4.20;;;;;;;4.26;100.00;101522.89;105652;1290;25397;-77
2023/03/18 08:56:07;;;;;;;30.70;5.40;;;;;;;4.25;100.00;101523.13;105612;1292;26544;-74
2023/03/18 08:58:37;;;;;;;25.90;4.80;;;;;;;4.19;100.00;101523.11;105623;1296;25555;-74
2023/03/18 09:01:06;;;;;;;30.60;4.80;;;;;;;4.14;100.00;101520.88;105548;1290;22549;-71
2023/03/18 09:03:38;;;;;;;22.90;4.50;;;;;;;4.14;100.00;101521.63;105605;1289;25403;-70
2023/03/18 09:06:08;;;;;;;26.30;5.10;;;;;;;4.15;100.00;101527.44;105185;1295;26678;-69
2023/03/18 09:08:38;;;;;;;26.60;4.70;;;;;;;4.18;100.00;101527.83;105406;1291;23939;-69
2023/03/18 09:11:09;;;;;;;24.20;5.00;;;;;;;4.17;100.00;101534.45;105383;1292;25271;-73
2023/03/18 09:13:38;;;;;;;29.50;4.40;;;;;;;4.22;100.00;101534.02;105527;1289;22557;-69
2023/03/18 09:16:13;;;;;;;15.60;4.00;;;;;;;4.26;100.00;101533.04;105590;1289;25274;-71
2023/03/18 09:18:41;;;;;;;19.90;4.40;;;;;;;4.28;100.00;101531.33;105646;1296;25398;-73
2023/03/18 09:21:14;;;;;;;;;;;;;;;4.30;100.00;101529.77;105676;1290;25251;-74
2023/03/18 09:23:46;;;;;;;24.10;4.30;;;;;;;4.34;100.00;101528.44;105683;1287;25692;-73
2023/03/18 09:26:15;;;;;;;22.70;4.90;;;;;;;4.35;100.00;101529.46;105371;1296;24252;-74
2023/03/18 09:28:49;;;;;;;21.70;4.40;;;;;;;4.37;100.00;101531.84;105475;1290;24316;-73
2023/03/18 09:31:19;;;;;;;32.60;4.80;;;;;;;4.40;100.00;101527.02;105484;1290;25436;-73
2023/03/18 09:33:48;;;;;;;21.30;3.50;;;;;;;4.45;100.00;101529.91;105588;1296;25400;-76
2023/03/18 09:36:20;;;;;;;22.90;4.10;;;;;;;4.52;100.00;101531.97;105429;1292;25350;-76
2023/03/18 09:38:49;;;;;;;17.50;4.00;;;;;;;4.60;100.00;101530.56;105344;1290;25397;-74
2023/03/18 09:41:31;;;;;;;22.90;4.00;;;;;;;4.67;100.00;101534.95;105639;1289;25603;-74
2023/03/18 09:44:20;;;;;;;23.70;4.80;;;;;;;4.63;100.00;101540.61;105517;1292;22554;-74
2023/03/18 09:47:04;;;;;;;39.20;5.50;;;;;;;4.59;100.00;101543.19;105675;1289;24369;-72
2023/03/18 09:49:53;;;;;;;31.50;5.40;;;;;;;4.56;100.00;101542.43;105549;1288;26540;-73
2023/03/18 09:52:25;;;;;;;31.40;4.80;;;;;;;4.49;100.00;101543.96;105263;1296;25325;-72
2023/03/18 09:55:23;;;;;;;26.20;4.80;;;;;;;4.44;100.00;101552.86;105959;1289;22611;-75
2023/03/18 09:57:54;;;;;;;23.20;4.40;;;;;;;4.36;100.00;101555.96;106539;1289;24286;-74
2023/03/18 10:00:35;;;;;;;24.40;4.60;;;;;;;4.31;100.00;101554.14;106468;1289;23356;-73
2023/03/18 10:03:31;;;;;;;24.80;5.20;;;;;;;4.26;100.00;101551.99;105563;1289;25463;-70
2023/03/18 10:06:21;;;;;;;23.60;4.70;;;;;;;4.28;100.00;101551.83;105612;1290;25676;-70
2023/03/18 10:09:16;;;;;;;16.60;4.10;;;;;;;4.35;100.00;101547.48;105459;1290;25473;-71
2023/03/18 10:11:47;;;;;;;36.10;4.90;;;;;;;4.40;100.00;101545.79;105692;1289;25366;-71
2023/03/18 10:14:24;;;;;;;24.70;4.20;;;;;;;4.41;100.00;101540.71;107093;1296;25458;-69
2023/03/18 10:17:21;;;;;;;29.90;4.20;;;;;;;4.47;100.00;101539.06;105845;1289;26554;-71
2023/03/18 10:20:05;;;;;;;23.50;3.90;;;;;;;4.48;100.00;101545.27;105889;1295;22561;-73
2023/03/18 10:22:48;;;;;;;19.70;3.80;;;;;;;4.47;100.00;101539.83;107422;1296;22570;-75
2023/03/18 10:25:31;;;;;;;29.20;4.50;;;;;;;4.46;100.00;101540.41;105535;1296;24302;-73
2023/03/18 10:28:19;;;;;;;26.90;3.80;;;;;;;4.48;100.00;101533.45;105625;1296;25382;-71
2023/03/18 10:31:11;;;;;;;29.90;4.70;;;;;;;4.55;100.00;101534.65;105523;1296;25640;-77
2023/03/18 10:33:45;;;;;;;34.90;4.90;;;;;;;4.64;100.00;101536.04;105556;1296;25453;-74
2023/03/18 10:36:23;;;;;;;29.30;5.40;;;;;;;4.73;100.00;101536.74;105694;1293;25298;-74
2023/03/18 10:38:52;;;;;;;43.50;5.30;;;;;;;4.77;100.00;101535.80;105671;1290;22690;-74
2023/03/18 10:41:30;;;;;;;30.30;5.40;;;;;;;4.71;100.00;101537.05;105533;1290;22800;-75
2023/03/18 10:44:02;;;;;;;15.90;3.80;;;;;;;4.65;100.00;101537.10;104967;1289;1003408;-75
2023/03/18 10:46:31;;;;;;;24.10;4.30;;;;;;;4.63;100.00;101534.50;105540;1290;25350;-77
2023/03/18 10:49:18;;;;;;;17.80;3.50;;;;;;;4.68;100.00;101531.16;105319;1289;22552;-75
2023/03/18 10:51:53;;;;;;;22.70;5.20;;;;;;;4.79;100.00;101534.41;105769;1292;24262;-75
2023/03/18 10:54:37;;;;;;;26.90;4.90;;;;;;;4.95;100.00;101527.52;106133;1289;23858;-77
2023/03/18 10:57:08;;;;;;;28.10;4.90;;;;;;;5.10;100.00;101525.44;105558;1296;22527;-75
2023/03/18 10:59:43;;;;;;;13.00;4.30;;;;;;;5.15;100.00;101523.34;105725;1290;26705;-73
2023/03/18 11:02:11;;;;;;;29.70;6.90;;;;;;;5.20;100.00;101523.19;105296;1295;22554;-73
2023/03/18 11:04:44;;;;;;;39.30;6.00;;;;;;;5.22;100.00;101522.91;105467;1287;24533;-76
2023/03/18 11:07:25;;;;;;;30.90;6.00;;;;;;;5.14;100.00;101523.60;105677;1295;25400;-76
2023/03/18 11:09:54;;;;;;;25.50;4.30;;;;;;;5.09;100.00;101526.04;105517;1296;22550;-75
2023/03/18 11:12:26;;;;;;;21.60;4.30;;;;;;;5.00;100.00;101517.54;105385;1292;24435;-76
2023/03/18 11:14:55;;;;;;;24.80;4.80;;;;;;;4.92;100.00;101517.14;105034;1293;1003010;-78
2023/03/18 11:17:30;;;;;;;22.70;4.30;;;;;;;4.91;100.00;101514.71;105564;1290;25481;-76
2023/03/18 11:20:20;;;;;;;15.60;3.80;;;;;;;4.93;100.00;101508.53;105667;1290;22560;-76
2023/03/18 11:22:51;;;;;;;18.40;3.70;;;;;;;4.99;100.00;101509.71;105663;1293;22552;-77
2023/03/18 11:25:29;;;;;;;14.30;3.90;;;;;;;5.07;100.00;101504.18;105264;1297;24234;-76
2023/03/18 11:28:03;;;;;;;17.60;4.90;;;;;;;5.14;100.00;101504.83;105788;1290;26075;-77
2023/03/18 11:30:51;;;;;;;25.40;4.60;;;;;;;5.15;100.00;101503.17;105440;1296;22808;-76
2023/03/18 11:33:23;;;;;;;16.50;3.60;;;;;;;5.11;100.00;101507.91;105120;1288;1003027;-76
2023/03/18 11:36:08;;;;;;;17.40;4.00;;;;;;;5.04;100.00;101500.98;105408;1296;22780;-75